createdAt,value
2022-11-23T00:02:19.561Z,96608.13
2022-11-23T00:04:49.379Z,96599.65
2022-11-23T00:07:19.473Z,96595.73
2022-11-23T00:09:49.301Z,96594.02
2022-11-23T00:12:20.040Z,96591.30
2022-11-23T00:14:49.850Z,96589.11
2022-11-23T00:17:19.810Z,96586.05
2022-11-23T00:19:49.800Z,96583.84
2022-11-23T00:22:19.660Z,96582.83
2022-11-23T00:24:49.602Z,96581.80
2022-11-23T00:27:19.344Z,96589.80
2022-11-23T00:29:49.841Z,96591.15
2022-11-23T00:32:19.680Z,96589.80
2022-11-23T00:34:49.551Z,96589.96
2022-11-23T00:37:19.393Z,96589.80
2022-11-23T00:39:51.700Z,96590.14
2022-11-23T00:42:21.758Z,96587.08
2022-11-23T00:44:52.091Z,96581.32
2022-11-23T00:47:22.440Z,96581.48
2022-11-23T00:49:53.551Z,96586.75
2022-11-23T00:52:24.910Z,96585.55
2022-11-23T00:54:55.411Z,96582.85
2022-11-23T00:57:25.750Z,96584.56
2022-11-23T00:59:55.819Z,96585.74
2022-11-23T01:02:28.080Z,96593.55
2022-11-23T01:04:58.021Z,96597.30
2022-11-23T01:07:30.709Z,96596.80
2022-11-23T01:10:00.470Z,96601.89
2022-11-23T01:12:31.520Z,96599.19
2022-11-23T01:15:01.628Z,96595.46
2022-11-23T01:17:31.710Z,96592.23
2022-11-23T01:20:01.601Z,96590.70
2022-11-23T01:22:31.388Z,96589.36
2022-11-23T01:25:01.400Z,96581.20
2022-11-23T01:27:49.981Z,96578.48
2022-11-23T01:30:20.530Z,96577.45
2022-11-23T01:32:51.020Z,96573.55
2022-11-23T01:35:21.840Z,96574.40
2022-11-23T01:37:51.730Z,96572.20
2022-11-23T01:40:22.291Z,96570.49
2022-11-23T01:42:56.800Z,96575.42
2022-11-23T01:45:39.558Z,96572.38
2022-11-23T01:48:16.791Z,96574.77
2022-11-23T01:50:50.621Z,96571.02
2022-11-23T01:53:23.072Z,96568.48
2022-11-23T01:55:55.580Z,96572.23
2022-11-23T01:58:28.071Z,96572.90
2022-11-23T02:00:58.539Z,96565.10
2022-11-23T02:03:31.121Z,96570.35
2022-11-23T02:06:03.890Z,96567.48
2022-11-23T02:08:34.110Z,96569.67
2022-11-23T02:11:05.860Z,96570.52
2022-11-23T02:13:35.942Z,96574.06
2022-11-23T02:16:06.991Z,96574.91
2022-11-23T02:18:38.611Z,96576.95
2022-11-23T02:21:08.911Z,96575.77
2022-11-23T02:23:46.992Z,96574.74
2022-11-23T02:26:21.869Z,96578.64
2022-11-23T02:28:56.432Z,96575.74
2022-11-23T02:31:26.691Z,96576.60
2022-11-23T02:33:57.388Z,96583.05
2022-11-23T02:36:38.349Z,96582.70
2022-11-23T02:39:11.583Z,96584.24
2022-11-23T02:41:44.501Z,96586.29
2022-11-23T02:44:32.588Z,96584.08
2022-11-23T02:47:04.441Z,96583.75
2022-11-23T02:49:35.510Z,96583.05
2022-11-23T02:52:07.189Z,96580.86
2022-11-23T02:54:37.406Z,96579.00
2022-11-23T02:57:08.589Z,96574.42
2022-11-23T02:59:38.722Z,96575.95
2022-11-23T03:02:09.632Z,96577.15
2022-11-23T03:04:39.541Z,96571.90
2022-11-23T03:07:09.646Z,96571.73
2022-11-23T03:09:39.490Z,96574.09
2022-11-23T03:12:09.565Z,96574.95
2022-11-23T03:14:39.629Z,96578.85
2022-11-23T03:17:09.518Z,96582.08
2022-11-23T03:19:45.743Z,96581.56
2022-11-23T03:22:16.415Z,96584.11
2022-11-23T03:24:46.579Z,96584.46
2022-11-23T03:27:18.920Z,96584.27
2022-11-23T03:29:49.491Z,96579.71
2022-11-23T03:32:22.641Z,96580.73
2022-11-23T03:34:54.858Z,96580.76
2022-11-23T03:37:25.640Z,96578.38
2022-11-23T03:39:56.351Z,96579.25
2022-11-23T03:42:45.230Z,96576.88
2022-11-23T03:45:15.642Z,96574.00
2022-11-23T03:47:45.672Z,96575.54
2022-11-23T03:50:16.262Z,96574.68
2022-11-23T03:52:46.131Z,96576.73
2022-11-23T03:55:18.519Z,96575.20
2022-11-23T03:57:50.240Z,96572.50
2022-11-23T04:00:21.082Z,96574.88
2022-11-23T04:02:51.774Z,96576.07
2022-11-23T04:05:50.981Z,96579.98
2022-11-23T04:08:21.781Z,96581.48
2022-11-23T04:10:52.069Z,96580.47
2022-11-23T04:13:25.990Z,96577.23
2022-11-23T04:15:56.201Z,96576.58
2022-11-23T04:18:26.667Z,96578.60
2022-11-23T04:20:57.451Z,96579.79
2022-11-23T04:23:27.583Z,96579.95
2022-11-23T04:25:57.681Z,96574.20
2022-11-23T04:28:28.118Z,96573.52
2022-11-23T04:30:58.540Z,96572.16
2022-11-23T04:33:31.301Z,96575.20
2022-11-23T04:36:01.633Z,96571.98
2022-11-23T04:38:31.762Z,96576.56
2022-11-23T04:41:02.583Z,96577.07
2022-11-23T04:43:35.240Z,96585.38
2022-11-23T04:46:06.460Z,96585.05
2022-11-23T04:48:36.466Z,96588.62
2022-11-23T04:51:07.811Z,96593.52
2022-11-23T04:53:39.886Z,96593.17
2022-11-23T04:56:12.363Z,96591.48
2022-11-23T04:58:43.500Z,96594.88
2022-11-23T05:01:14.702Z,96596.41
2022-11-23T05:04:04.792Z,96597.42
2022-11-23T05:06:34.904Z,96593.86
2022-11-23T05:09:06.531Z,96595.05
2022-11-23T05:12:06.380Z,96597.42
2022-11-23T05:14:37.189Z,96594.21
2022-11-23T05:17:09.552Z,96592.68
2022-11-23T05:19:40.893Z,96592.35
2022-11-23T05:22:11.691Z,96594.72
2022-11-23T05:24:43.608Z,96600.48
2022-11-23T05:27:17.831Z,96593.70
2022-11-23T05:29:47.889Z,96592.17
2022-11-23T05:32:18.118Z,96593.54
2022-11-23T05:34:47.998Z,96595.23
2022-11-23T05:37:18.590Z,96597.76
2022-11-23T05:39:54.363Z,96593.52
2022-11-23T05:42:29.030Z,96587.77
2022-11-23T05:45:05.324Z,96588.27
2022-11-23T05:47:42.329Z,96595.40
2022-11-23T05:50:20.841Z,96604.05
2022-11-23T05:52:50.749Z,96612.70
2022-11-23T05:55:21.379Z,96613.53
2022-11-23T05:57:51.351Z,96608.42
2022-11-23T06:00:22.347Z,96609.95
2022-11-23T06:03:01.210Z,96613.34
2022-11-23T06:05:31.460Z,96611.81
2022-11-23T06:08:04.268Z,96623.16
2022-11-23T06:10:35.699Z,96629.61
2022-11-23T06:13:06.396Z,96632.15
2022-11-23T06:15:36.630Z,96635.36
2022-11-23T06:18:07.169Z,96634.52
2022-11-23T06:20:49.129Z,96635.02
2022-11-23T06:23:19.210Z,96632.48
2022-11-23T06:25:49.037Z,96637.56
2022-11-23T06:28:24.360Z,96640.29
2022-11-23T06:30:56.621Z,96637.41
2022-11-23T06:33:28.120Z,96632.35
2022-11-23T06:35:59.999Z,96631.49
2022-11-23T06:38:33.930Z,96632.69
2022-11-23T06:41:06.870Z,96627.60
2022-11-23T06:43:37.812Z,96630.82
2022-11-23T06:46:08.353Z,96629.11
2022-11-23T06:48:44.922Z,96627.26
2022-11-23T06:51:15.320Z,96627.61
2022-11-23T06:53:46.140Z,96632.52
2022-11-23T06:56:17.111Z,96631.66
2022-11-23T06:58:48.753Z,96635.23
2022-11-23T07:01:21.731Z,96640.34
2022-11-23T07:03:58.281Z,96641.19
2022-11-23T07:06:35.471Z,96637.45
2022-11-23T07:09:08.181Z,96633.72
2022-11-23T07:11:58.546Z,96634.74
2022-11-23T07:14:30.881Z,96644.23
2022-11-23T07:17:01.403Z,96651.36
2022-11-23T07:19:31.530Z,96656.94
2022-11-23T07:22:02.367Z,96659.31
2022-11-23T07:24:39.538Z,96666.27
2022-11-23T07:27:11.757Z,96665.92
2022-11-23T07:29:41.670Z,96659.82
2022-11-23T07:32:11.590Z,96658.97
2022-11-23T07:34:42.629Z,96663.73
2022-11-23T07:37:15.750Z,96663.05
2022-11-23T07:39:57.370Z,96658.66
2022-11-23T07:42:34.533Z,96651.34
2022-11-23T07:45:09.442Z,96652.20
2022-11-23T07:47:41.983Z,96646.08
2022-11-23T07:50:13.779Z,96649.63
2022-11-23T07:52:43.772Z,96651.67
2022-11-23T07:55:15.663Z,96649.80
2022-11-23T07:57:45.979Z,96651.34
2022-11-23T08:00:17.825Z,96648.80
2022-11-23T08:03:04.540Z,96640.64
2022-11-23T08:05:38.088Z,96640.96
2022-11-23T08:08:08.101Z,96638.59
2022-11-23T08:10:43.619Z,96638.40
2022-11-23T08:13:15.350Z,96640.62
2022-11-23T08:15:50.153Z,96641.30
2022-11-23T08:18:24.095Z,96642.81
2022-11-23T08:20:54.482Z,96650.12
2022-11-23T08:23:25.398Z,96654.02
2022-11-23T08:25:55.440Z,96654.19
2022-11-23T08:28:28.445Z,96656.39
2022-11-23T08:30:58.431Z,96654.69
2022-11-23T08:33:28.418Z,96655.88
2022-11-23T08:35:58.268Z,96654.16
2022-11-23T08:38:29.617Z,96657.73
2022-11-23T08:41:03.809Z,96663.14
2022-11-23T08:43:34.590Z,96662.13
2022-11-23T08:46:11.105Z,96665.52
2022-11-23T08:48:42.377Z,96657.73
2022-11-23T08:51:12.821Z,96648.55
2022-11-23T08:53:43.709Z,96645.47
2022-11-23T08:56:13.699Z,96645.13
2022-11-23T08:58:43.980Z,96643.59
2022-11-23T09:01:15.820Z,96642.74
2022-11-23T09:03:47.642Z,96639.82
2022-11-23T09:06:17.988Z,96638.45
2022-11-23T09:08:50.391Z,96638.77
2022-11-23T09:11:20.190Z,96640.83
2022-11-23T09:13:50.050Z,96636.23
2022-11-23T09:16:20.490Z,96630.10
2022-11-23T09:18:50.550Z,96624.15
2022-11-23T09:21:20.967Z,96627.23
2022-11-23T09:23:51.299Z,96628.23
2022-11-23T09:26:21.271Z,96631.63
2022-11-23T09:28:52.706Z,96629.41
2022-11-23T09:31:25.691Z,96628.39
2022-11-23T09:33:55.800Z,96630.77
2022-11-23T09:36:26.417Z,96631.41
2022-11-23T09:38:57.470Z,96626.98
2022-11-23T09:41:53.119Z,96628.55
2022-11-23T09:44:32.363Z,96626.33
2022-11-23T09:47:13.952Z,96619.51
2022-11-23T09:49:53.251Z,96616.09
2022-11-23T09:52:25.284Z,96617.32
2022-11-23T09:54:59.113Z,96620.91
2022-11-23T09:57:34.948Z,96622.27
2022-11-23T10:00:11.110Z,96617.87
2022-11-23T10:02:42.767Z,96611.08
2022-11-23T10:05:19.161Z,96601.39
2022-11-23T10:08:06.865Z,96604.77
2022-11-23T10:10:44.151Z,96603.43
2022-11-23T10:13:34.718Z,96592.86
2022-11-23T10:16:37.641Z,96586.23
2022-11-23T10:19:19.811Z,96587.62
2022-11-23T10:21:55.769Z,96577.76
2022-11-23T10:24:32.203Z,96572.48
2022-11-23T10:27:06.720Z,96574.02
2022-11-23T10:29:39.829Z,96569.09
2022-11-23T10:32:22.611Z,96564.98
2022-11-23T10:35:03.675Z,96565.45
2022-11-23T10:37:34.441Z,96569.20
2022-11-23T10:40:04.624Z,96562.70
2022-11-23T10:42:43.110Z,96552.82
2022-11-23T10:45:22.961Z,96550.60
2022-11-23T10:47:58.539Z,96553.80
2022-11-23T10:50:33.160Z,96553.48
2022-11-23T10:53:19.538Z,96549.08
2022-11-23T10:55:53.388Z,96551.98
2022-11-23T10:58:31.011Z,96546.89
2022-11-23T11:01:03.593Z,96548.27
2022-11-23T11:03:35.459Z,96546.73
2022-11-23T11:06:09.103Z,96544.67
2022-11-23T11:08:51.926Z,96544.17
2022-11-23T11:11:28.558Z,96545.86
2022-11-23T11:14:06.913Z,96548.27
2022-11-23T11:16:38.003Z,96549.44
2022-11-23T11:19:26.530Z,96548.59
2022-11-23T11:21:57.340Z,96546.73
2022-11-23T11:24:33.071Z,96545.38
2022-11-23T11:27:07.273Z,96551.67
2022-11-23T11:29:47.147Z,96549.98
2022-11-23T11:32:25.091Z,96553.56
2022-11-23T11:35:01.170Z,96557.98
2022-11-23T11:37:35.930Z,96553.91
2022-11-23T11:40:17.180Z,96556.45
2022-11-23T11:42:54.693Z,96555.74
2022-11-23T11:45:28.362Z,96558.98
2022-11-23T11:48:00.677Z,96559.52
2022-11-23T11:50:34.451Z,96558.85
2022-11-23T11:53:15.515Z,96560.05
2022-11-23T11:55:55.611Z,96559.58
2022-11-23T11:58:26.460Z,96561.79
2022-11-23T12:01:04.862Z,96559.40
2022-11-23T12:03:41.920Z,96562.27
2022-11-23T12:06:21.304Z,96561.27
2022-11-23T12:09:00.964Z,96561.13
2022-11-23T12:11:32.419Z,96559.40
2022-11-23T12:14:05.169Z,96559.58
2022-11-23T12:16:47.721Z,96558.89
2022-11-23T12:19:31.017Z,96562.83
2022-11-23T12:22:17.010Z,96562.15
2022-11-23T12:25:10.941Z,96564.36
2022-11-23T12:27:57.051Z,96568.95
2022-11-23T12:30:42.432Z,96575.06
2022-11-23T12:33:44.490Z,96575.40
2022-11-23T12:36:41.551Z,96579.13
2022-11-23T12:39:28.681Z,96572.02
2022-11-23T12:42:06.230Z,96576.24
2022-11-23T12:45:03.750Z,96575.05
2022-11-23T12:47:51.310Z,96571.48
2022-11-23T12:50:31.159Z,96575.05
2022-11-23T12:53:08.947Z,96571.14
2022-11-23T12:55:48.857Z,96576.42
2022-11-23T12:58:24.322Z,96575.88
2022-11-23T13:00:58.772Z,96576.93
2022-11-23T13:03:59.263Z,96573.35
2022-11-23T13:07:12.429Z,96577.78
2022-11-23T13:10:10.235Z,96576.42
2022-11-23T13:13:08.785Z,96570.31
2022-11-23T13:16:16.075Z,96563.17
2022-11-23T13:19:00.170Z,96554.34
2022-11-23T13:21:40.078Z,96563.67
2022-11-23T13:24:28.353Z,96563.33
2022-11-23T13:27:32.315Z,96569.45
2022-11-23T13:30:10.643Z,96568.60
2022-11-23T13:32:56.086Z,96571.66
2022-11-23T13:35:55.048Z,96575.91
2022-11-23T13:38:42.460Z,96580.84
2022-11-23T13:41:52.831Z,96573.53
2022-11-23T13:44:25.571Z,96570.13
2022-11-23T13:47:01.870Z,96574.72
2022-11-23T13:49:35.291Z,96579.48
2022-11-23T13:52:28.151Z,96583.92
2022-11-23T13:55:08.856Z,96589.36
2022-11-23T13:57:41.355Z,96587.15
2022-11-23T14:00:46.695Z,96583.05
2022-11-23T14:03:51.574Z,96582.36
2022-11-23T14:06:45.921Z,96581.34
2022-11-23T14:09:23.767Z,96578.12
2022-11-23T14:12:01.015Z,96580.50
2022-11-23T14:14:48.039Z,96578.61
2022-11-23T14:17:37.185Z,96578.65
2022-11-23T14:20:35.454Z,96580.19
2022-11-23T14:23:41.719Z,96579.16
2022-11-23T14:26:26.562Z,96574.91
2022-11-23T14:29:25.652Z,96581.87
2022-11-23T14:32:11.333Z,96584.95
2022-11-23T14:34:54.941Z,96582.08
2022-11-23T14:37:33.795Z,96579.34
2022-11-23T14:40:18.100Z,96581.40
2022-11-23T14:42:56.291Z,96581.37
2022-11-23T14:45:36.971Z,96580.17
2022-11-23T14:48:30.281Z,96579.48
2022-11-23T14:51:03.217Z,96577.61
2022-11-23T14:53:36.010Z,96578.98
2022-11-23T14:56:17.234Z,96583.03
2022-11-23T14:58:47.763Z,96581.70
2022-11-23T15:01:22.962Z,96582.89
2022-11-23T15:04:02.390Z,96587.30
2022-11-23T15:06:42.357Z,96588.30
2022-11-23T15:09:37.983Z,96595.45
2022-11-23T15:12:23.192Z,96596.11
2022-11-23T15:14:56.952Z,96597.83
2022-11-23T15:17:27.023Z,96600.55
2022-11-23T15:19:59.050Z,96603.27
2022-11-23T15:22:31.861Z,96604.79
2022-11-23T15:25:12.191Z,96607.89
2022-11-23T15:27:44.380Z,96608.55
2022-11-23T15:30:20.811Z,96607.34
2022-11-23T15:33:04.363Z,96607.35
2022-11-23T15:35:36.672Z,96602.27
2022-11-23T15:38:16.634Z,96609.70
2022-11-23T15:40:52.160Z,96607.00
2022-11-23T15:43:23.669Z,96608.69
2022-11-23T15:46:05.329Z,96609.38
2022-11-23T15:48:36.855Z,96609.20
2022-11-23T15:51:08.937Z,96609.38
2022-11-23T15:53:51.162Z,96608.02
2022-11-23T15:56:25.831Z,96612.79
2022-11-23T15:58:59.611Z,96612.61
2022-11-23T16:01:31.037Z,96615.52
2022-11-23T16:04:04.282Z,96614.69
2022-11-23T16:06:39.760Z,96608.56
2022-11-23T16:09:53.376Z,96615.02
2022-11-23T16:12:29.160Z,96619.95
2022-11-23T16:15:22.241Z,96624.52
2022-11-23T16:17:53.731Z,96628.77
2022-11-23T16:20:27.170Z,96632.50
2022-11-23T16:22:59.740Z,96633.86
2022-11-23T16:25:32.560Z,96633.86
2022-11-23T16:28:04.459Z,96634.17
2022-11-23T16:30:39.241Z,96634.52
2022-11-23T16:33:16.386Z,96629.92
2022-11-23T16:35:46.688Z,96625.52
2022-11-23T16:38:22.430Z,96624.99
2022-11-23T16:40:55.982Z,96629.42
2022-11-23T16:43:37.859Z,96633.67
2022-11-23T16:46:22.432Z,96635.58
2022-11-23T16:48:58.910Z,96633.02
2022-11-23T16:51:29.683Z,96630.46
2022-11-23T16:54:18.055Z,96630.61
2022-11-23T16:57:03.175Z,96624.99
2022-11-23T16:59:36.478Z,96627.04
2022-11-23T17:02:12.880Z,96623.31
2022-11-23T17:04:46.874Z,96623.13
2022-11-23T17:07:17.082Z,96630.27
2022-11-23T17:09:47.678Z,96630.77
2022-11-23T17:12:19.071Z,96634.01
2022-11-23T17:14:50.883Z,96638.25
2022-11-23T17:17:22.707Z,96637.56
2022-11-23T17:19:53.470Z,96637.73
2022-11-23T17:22:25.250Z,96643.67
2022-11-23T17:24:57.330Z,96640.11
2022-11-23T17:27:30.022Z,96642.49
2022-11-23T17:30:04.591Z,96644.18
2022-11-23T17:32:35.729Z,96644.18
2022-11-23T17:35:11.651Z,96644.02
2022-11-23T17:37:42.680Z,96636.21
2022-11-23T17:40:17.513Z,96644.86
2022-11-23T17:42:47.712Z,96658.11
2022-11-23T17:45:18.463Z,96656.42
2022-11-23T17:47:49.210Z,96654.21
2022-11-23T17:50:20.192Z,96655.23
2022-11-23T17:52:53.903Z,96656.76
2022-11-23T17:55:31.201Z,96657.95
2022-11-23T17:58:01.920Z,96655.73
2022-11-23T18:00:33.510Z,96655.73
2022-11-23T18:03:04.307Z,96650.14
2022-11-23T18:05:38.422Z,96652.35
2022-11-23T18:08:10.024Z,96653.89
2022-11-23T18:10:43.099Z,96657.94
2022-11-23T18:13:16.238Z,96661.34
2022-11-23T18:15:46.422Z,96659.62
2022-11-23T18:18:16.782Z,96656.71
2022-11-23T18:20:46.683Z,96657.73
2022-11-23T18:23:16.830Z,96654.33
2022-11-23T18:25:47.590Z,96650.23
2022-11-23T18:28:18.494Z,96648.52
2022-11-23T18:30:49.167Z,96648.17
2022-11-23T18:33:19.864Z,96644.95
2022-11-23T18:35:52.295Z,96643.25
2022-11-23T18:38:23.270Z,96638.48
2022-11-23T18:40:56.069Z,96631.53
2022-11-23T18:43:26.499Z,96633.73
2022-11-23T18:45:56.571Z,96631.02
2022-11-23T18:48:28.189Z,96634.26
2022-11-23T18:50:58.241Z,96628.66
2022-11-23T18:53:28.100Z,96630.71
2022-11-23T18:56:05.283Z,96635.13
2022-11-23T18:58:36.283Z,96634.45
2022-11-23T19:01:12.645Z,96635.66
2022-11-23T19:03:44.825Z,96633.96
2022-11-23T19:06:18.660Z,96641.62
2022-11-23T19:08:59.472Z,96642.83
2022-11-23T19:11:30.092Z,96648.10
2022-11-23T19:14:01.980Z,96651.33
2022-11-23T19:16:33.066Z,96651.33
2022-11-23T19:19:09.249Z,96649.98
2022-11-23T19:21:42.530Z,96643.19
2022-11-23T19:24:13.833Z,96642.48
2022-11-23T19:26:49.500Z,96650.83
2022-11-23T19:29:23.773Z,96654.38
2022-11-23T19:31:57.423Z,96657.45
2022-11-23T19:34:31.321Z,96656.09
2022-11-23T19:37:02.776Z,96644.02
2022-11-23T19:39:34.339Z,96636.54
2022-11-23T19:42:04.651Z,96643.67
2022-11-23T19:44:37.100Z,96648.11
2022-11-23T19:47:13.855Z,96655.75
2022-11-23T19:49:46.391Z,96659.30
2022-11-23T19:52:17.820Z,96656.92
2022-11-23T19:54:47.671Z,96652.34
2022-11-23T19:57:17.980Z,96656.77
2022-11-23T19:59:47.981Z,96656.42
2022-11-23T20:02:25.026Z,96662.37
2022-11-23T20:04:55.171Z,96668.32
2022-11-23T20:23:50.369Z,96683.97
2022-11-23T20:26:22.342Z,96689.24
2022-11-23T20:28:53.610Z,96693.48
2022-11-23T20:31:25.295Z,96688.38
2022-11-23T20:33:56.070Z,96685.66
2022-11-23T20:36:27.745Z,96680.74
2022-11-23T20:38:58.729Z,96676.34
2022-11-23T20:41:30.310Z,96675.65
2022-11-23T20:44:10.685Z,96681.95
2022-11-23T20:49:31.379Z,96676.00
2022-11-23T20:52:03.172Z,96672.59
2022-11-23T20:54:33.814Z,96676.35
2022-11-23T20:57:04.600Z,96677.55
2022-11-23T20:59:34.891Z,96679.43
2022-11-23T21:02:06.124Z,96686.56
2022-11-23T21:04:36.365Z,96694.36
2022-11-23T21:07:12.397Z,96694.05
2022-11-23T21:09:44.442Z,96690.48
2022-11-23T21:12:32.363Z,96693.54
2022-11-23T21:15:03.129Z,96693.02
2022-11-23T21:17:33.638Z,96691.49
2022-11-23T21:20:04.311Z,96693.18
2022-11-23T21:22:34.552Z,96694.52
2022-11-23T21:25:07.709Z,96701.16
2022-11-23T21:27:38.161Z,96703.71
2022-11-23T21:30:10.269Z,96703.20
2022-11-23T21:32:41.151Z,96702.67
2022-11-23T21:35:12.571Z,96703.67
2022-11-23T21:37:43.140Z,96707.41
2022-11-23T21:40:16.310Z,96704.55
2022-11-23T21:42:46.180Z,96704.87
2022-11-23T21:45:17.181Z,96704.70
2022-11-23T21:47:50.341Z,96706.05
2022-11-23T21:50:20.560Z,96706.05
2022-11-23T21:52:50.887Z,96701.80
2022-11-23T21:55:21.030Z,96702.30
2022-11-23T21:57:51.420Z,96700.09
2022-11-23T22:00:28.414Z,96700.60
2022-11-23T22:03:01.441Z,96698.05
2022-11-23T22:05:31.523Z,96697.03
2022-11-23T22:08:28.108Z,96697.70
2022-11-23T22:10:53.922Z,96709.27
2022-11-23T22:13:28.202Z,96705.70
2022-11-23T22:16:00.591Z,96702.98
2022-11-23T22:18:31.231Z,96702.63
2022-11-23T22:21:06.220Z,96699.91
2022-11-23T22:23:36.190Z,96698.05
2022-11-23T22:26:08.500Z,96701.11
2022-11-23T22:28:40.477Z,96698.73
2022-11-23T22:31:12.214Z,96695.83
2022-11-23T22:33:43.055Z,96693.29
2022-11-23T22:36:14.880Z,96696.19
2022-11-23T22:38:45.250Z,96695.16
2022-11-23T22:41:17.461Z,96691.77
2022-11-23T22:43:47.920Z,96690.41
2022-11-23T22:46:19.778Z,96693.12
2022-11-23T22:48:51.902Z,96693.45
2022-11-23T22:51:23.394Z,96689.38
2022-11-23T22:53:56.278Z,96690.91
2022-11-23T22:56:27.267Z,96691.90
2022-11-23T22:58:58.199Z,96694.27
2022-11-23T23:01:30.035Z,96692.90
2022-11-23T23:04:02.478Z,96697.18
2022-11-23T23:06:34.310Z,96700.73
2022-11-23T23:09:09.002Z,96697.85
2022-11-23T23:11:39.550Z,96693.42
2022-11-23T23:14:10.391Z,96688.30
2022-11-23T23:16:40.724Z,96687.25
2022-11-23T23:19:13.902Z,96684.37
2022-11-23T23:21:44.064Z,96683.51
2022-11-23T23:24:14.511Z,96685.20
2022-11-23T23:26:44.550Z,96685.89
2022-11-23T23:29:14.990Z,96686.05
2022-11-23T23:31:44.951Z,96685.70
2022-11-23T23:34:18.139Z,96681.79
2022-11-23T23:36:48.019Z,96685.20
2022-11-23T23:39:18.328Z,96685.70
2022-11-23T23:41:48.276Z,96690.30
2022-11-23T23:44:19.498Z,96691.84
2022-11-23T23:46:49.270Z,96691.16
2022-11-23T23:49:19.450Z,96691.17
2022-11-23T23:51:51.755Z,96689.83
2022-11-23T23:54:21.861Z,96690.85
2022-11-23T23:56:52.451Z,96689.14
2022-11-23T23:59:23.300Z,96688.30
